Anatone, WA (99401)

11:13 PM PDT on July 28, 2016 (GMT -0700)
Montgomery Ridge Road | | Change Station
Active Advisory: Fire Weather Watch

Elev 3300 ft 46.12 °N, 117.01 °W | Updated 5 seconds ago

Clear
Clear
68.9 °F
Feels Like 68.9 °F
N
4.9
Wind Variable Wind from West
Gusts 5.8 mph

Today
High -- | Low -- °F
--% Chance of Precip.
Yesterday
High -- | Low -- °F
Precip. -- in
Pressure 29.89 in
Visibility 10.0 miles
Clouds Clear
Dew Point 47 °F
Humidity 45%
Rainfall 0.00 in
Snow Depth Not available.
5:26 AM 8:22 PM
Waning Crescent, 25% visible
METAR KLWS 290556Z 20008KT 10SM CLR 28/08 A2993 RMK AO2 SLP120 T02780078 10383 20272 52008
Pressure 29.89 in
Visibility 10.0 miles
Clouds Clear
Dew Point 47 °F
Humidity 45%
Rainfall 0.00 in
Snow Depth Not available.
5:26 AM 8:22 PM
Waning Crescent, 25% visible
METAR KLWS 290556Z 20008KT 10SM CLR 28/08 A2993 RMK AO2 SLP120 T02780078 10383 20272 52008

10-Day Weather Forecast

Almanac

Astronomy

Jul. 28, 2016 Rise Set
Actual Time
Civil Twilight
Nautical Twilight
Astronomical Twilight
Moon
Length of Visible Light
Length of Day
Tomorrow will be .
, % of the Moon is Illuminated

Today's Extremes

State Highs State Lows

Community

WunderPhotos

Upload Photos

1,928,299 photos uploaded!

WunderBlog® & News

Nearby

Air Quality

  Air Quality AQ Index Pollutant
Not available.

Snow Depth

Station Depth Elevation

Earthquake Activity

City Distance Mag. Time & Date
Minimum magnitude displayed is 2.5.

Coastal Water Temperatures

Place Temperature

Stations

Nearby Weather Stations

Station Location Temp. Windchill Dew Point Humidity Wind Precip. Elev Updated Type
                   

Watches & Warnings

Fire Weather Watch
Issued: 3:59 PM PDT Jul. 28, 2016 – National Weather Service

... Fire Weather Watch in effect from Saturday afternoon through
Sunday evening for gusty winds and low humidity...

The National Weather Service in Pendleton has issued a Fire
Weather Watch... which is in effect from Saturday afternoon
through Sunday evening.

* Affected area... Washington and Oregon fire zone 641 covering the
lower Columbia Basin and Blue Mountain foothills. Washington
fire zone 675 covering the Hanford district and the Yakima
Valley.

* Timing... the strongest winds will occur Saturday afternoon and
evening.

* Wind... southwest to west wind 15 to 25 mph on Saturday and 10 to
20 mph on Sunday.

* Humidity... 12 to 18 percent.

* Impacts... any fires that develop will likely spread rapidly.
Outdoor burning is not recommended.

Precautionary/preparedness actions...

A Fire Weather Watch means that critical fire weather conditions
are forecast to occur. Listen for later forecasts and possible
red flag warnings.